Terminal Aerodrome Forecast
Issued by NWS Cleveland, OH

Home | Current Version | Previous Version | Graphics & Text | Print | Product List | Glossary Off
Versions: 1 2 3 4 5 6 7 8 9 10 11 12 13 14 15 16 17 18 19

000
FTUS41 KCLE 311100
TAFTOL
TAF
KTOL 311140Z 3112/0112 21008KT P6SM SCT008 OVC012
      TEMPO 3113/3116 OVC008
     FM311800 24008KT P6SM OVC020
     FM312100 24006KT P6SM BKN035
     FM010900 24005KT 4SM BR SCT035 BKN200=

USA.gov is the U.S. government's official web portal to all federal, state and local government web resources and services.